Time;durP1;ratioP1;P1;durP2;ratioP2;P2;SDS_P1;SDS_P2;PMS_P1;PMS_P2;Temp;Humidity;BMP_temperature;BMP_pressure;BME280_temperature;BME280_humidity;BME280_pressure;Samples;Min_cycle;Max_cycle;Signal;HPM_P1;HPM_P2
2023/12/30 00:01:42;;;;;;;2.70;2.70;;;7.00;80.70;;;;;;6313259;28;20315;-81
2023/12/30 00:04:45;;;;;;;2.50;2.40;;;7.10;80.40;;;;;;6306620;28;20225;-79
2023/12/30 00:07:48;;;;;;;2.37;2.30;;;7.20;80.20;;;;;;6296867;28;20727;-83
2023/12/30 00:10:51;;;;;;;2.57;2.30;;;7.20;80.40;;;;;;6297080;28;20225;-80
2023/12/30 00:13:54;;;;;;;2.10;2.10;;;7.20;80.30;;;;;;6307011;28;20336;-79
2023/12/30 00:16:59;;;;;;;2.30;2.30;;;7.20;80.10;;;;;;6295683;28;20861;-80
2023/12/30 00:20:03;;;;;;;2.20;2.20;;;7.20;79.90;;;;;;6304472;28;20244;-79
2023/12/30 00:23:07;;;;;;;2.30;2.30;;;7.20;80.10;;;;;;6299385;28;20242;-80
2023/12/30 00:26:20;;;;;;;2.10;2.10;;;7.20;80.20;;;;;;6306525;28;20313;-81
2023/12/30 00:29:23;;;;;;;2.20;2.20;;;7.20;80.50;;;;;;6298855;28;20818;-80
2023/12/30 00:32:27;;;;;;;2.27;2.27;;;7.30;80.60;;;;;;6297115;28;20241;-80
2023/12/30 00:35:31;;;;;;;2.40;2.30;;;7.30;80.60;;;;;;6297407;28;20282;-78
2023/12/30 00:38:34;;;;;;;2.60;2.50;;;7.40;80.70;;;;;;6304468;28;20289;-80
2023/12/30 00:41:37;;;;;;;2.60;2.60;;;7.30;80.70;;;;;;6306441;28;20378;-80
2023/12/30 00:44:40;;;;;;;2.70;2.70;;;7.40;81.00;;;;;;6301013;28;20810;-80
2023/12/30 00:47:44;;;;;;;2.37;2.37;;;7.40;80.90;;;;;;6304513;28;20260;-80
2023/12/30 00:50:48;;;;;;;2.60;2.40;;;7.40;81.00;;;;;;6302410;28;20256;-79
2023/12/30 00:53:51;;;;;;;2.97;2.87;;;7.50;81.10;;;;;;6294310;28;20615;-82
2023/12/30 00:56:54;;;;;;;2.60;2.60;;;7.40;81.40;;;;;;6309014;28;20782;-79
2023/12/30 00:59:58;;;;;;;2.40;2.40;;;7.40;81.80;;;;;;6296063;28;20228;-81
2023/12/30 01:03:02;;;;;;;2.90;2.90;;;7.40;81.70;;;;;;6305502;28;20614;-80
2023/12/30 01:06:06;;;;;;;2.70;2.60;;;7.40;81.60;;;;;;6288206;28;20249;-80
2023/12/30 01:09:09;;;;;;;2.70;2.50;;;7.50;81.90;;;;;;6293099;28;20369;-80
2023/12/30 01:12:12;;;;;;;2.50;2.50;;;7.50;81.60;;;;;;6307796;28;20236;-80
2023/12/30 01:15:16;;;;;;;2.73;2.73;;;7.50;81.50;;;;;;6305388;28;20303;-80
2023/12/30 01:18:20;;;;;;;2.90;2.80;;;7.50;81.50;;;;;;6302301;28;20244;-80
2023/12/30 01:21:24;;;;;;;3.13;3.03;;;7.50;81.60;;;;;;6297330;28;20240;-80
2023/12/30 01:24:27;;;;;;;2.87;2.77;;;7.60;81.50;;;;;;6294464;28;20317;-82
2023/12/30 01:27:31;;;;;;;3.10;3.00;;;7.60;80.70;;;;;;6297200;28;20241;-81
2023/12/30 01:30:35;;;;;;;2.67;2.53;;;7.60;80.00;;;;;;6301858;28;20317;-81
2023/12/30 01:33:40;;;;;;;2.83;2.70;;;7.60;79.50;;;;;;6304745;28;20261;-77
2023/12/30 01:36:45;;;;;;;2.30;2.30;;;7.60;79.00;;;;;;6311962;28;20234;-80
2023/12/30 01:39:48;;;;;;;2.30;2.20;;;7.50;78.50;;;;;;6299926;28;20229;-79
2023/12/30 01:42:51;;;;;;;2.67;2.57;;;7.50;78.00;;;;;;6308305;28;20845;-80
2023/12/30 01:45:56;;;;;;;2.40;2.30;;;7.50;77.50;;;;;;6295835;28;20240;-81
2023/12/30 01:49:01;;;;;;;2.57;2.47;;;7.50;77.20;;;;;;6309969;28;20403;-81
2023/12/30 01:52:06;;;;;;;2.90;2.90;;;7.50;77.80;;;;;;6290904;28;20240;-81
2023/12/30 01:55:10;;;;;;;3.00;2.90;;;7.50;78.30;;;;;;6295395;28;20237;-80
2023/12/30 01:58:14;;;;;;;3.00;2.90;;;7.40;79.00;;;;;;6304301;28;20406;-78
2023/12/30 02:01:19;;;;;;;2.93;2.83;;;7.40;79.80;;;;;;6304016;28;20244;-80
2023/12/30 02:04:26;;;;;;;3.20;3.00;;;7.40;80.20;;;;;;6304199;28;20332;-79
2023/12/30 02:07:29;;;;;;;3.20;3.20;;;7.40;80.50;;;;;;6296134;28;20234;-81
2023/12/30 02:10:32;;;;;;;3.40;3.20;;;7.30;81.00;;;;;;6301041;28;20241;-80
2023/12/30 02:13:35;;;;;;;3.37;3.23;;;7.30;81.20;;;;;;6304002;28;20259;-79
2023/12/30 02:16:39;;;;;;;4.00;3.70;;;7.30;81.60;;;;;;6297675;28;20727;-76
2023/12/30 02:19:43;;;;;;;3.20;3.20;;;7.20;81.90;;;;;;6311469;28;20244;-80
2023/12/30 02:22:49;;;;;;;3.37;3.17;;;7.20;81.90;;;;;;6292907;28;20244;-80
2023/12/30 02:25:52;;;;;;;3.53;3.30;;;7.20;81.90;;;;;;6287731;28;20230;-80
2023/12/30 02:28:55;;;;;;;3.70;3.33;;;7.20;81.70;;;;;;6310299;28;20233;-80
2023/12/30 02:31:58;;;;;;;3.13;3.03;;;7.30;81.50;;;;;;6307642;28;20241;-81
2023/12/30 02:35:01;;;;;;;3.80;3.50;;;7.30;81.20;;;;;;6295313;28;20326;-81
2023/12/30 02:38:06;;;;;;;3.73;3.30;;;7.30;81.30;;;;;;6308536;28;20242;-79
2023/12/30 02:41:09;;;;;;;4.13;3.50;;;7.20;81.30;;;;;;6298140;28;20237;-80
2023/12/30 02:44:18;;;;;;;2.87;2.67;;;7.30;80.80;;;;;;6301404;28;20236;-80
2023/12/30 02:47:22;;;;;;;3.30;3.10;;;7.30;80.50;;;;;;6300441;28;20264;-79
2023/12/30 02:50:25;;;;;;;3.30;3.00;;;7.20;80.40;;;;;;6302257;28;20591;-80
2023/12/30 02:53:30;;;;;;;2.87;2.87;;;7.20;80.40;;;;;;6307107;28;20746;-80
2023/12/30 02:56:33;;;;;;;3.53;3.00;;;7.20;80.00;;;;;;6294817;28;20240;-80
2023/12/30 02:59:36;;;;;;;3.13;3.00;;;7.20;80.00;;;;;;6294173;28;20236;-81
2023/12/30 03:02:39;;;;;;;3.07;2.90;;;7.20;79.70;;;;;;6303174;28;20313;-80
2023/12/30 03:05:42;;;;;;;2.87;2.77;;;7.20;79.70;;;;;;6298081;28;20267;-78
2023/12/30 03:08:48;;;;;;;3.03;2.93;;;7.20;79.00;;;;;;6279659;28;20221;-81
2023/12/30 03:11:51;;;;;;;3.10;2.90;;;7.20;79.10;;;;;;6287040;28;20317;-80
2023/12/30 03:14:54;;;;;;;2.97;2.70;;;7.20;79.00;;;;;;6288428;28;20232;-79
2023/12/30 03:17:57;;;;;;;2.60;2.60;;;7.20;78.40;;;;;;6310534;28;20748;-78
2023/12/30 03:21:01;;;;;;;3.20;3.10;;;7.20;78.10;;;;;;6310506;28;20225;-79
2023/12/30 03:24:06;;;;;;;3.67;3.43;;;7.20;77.70;;;;;;6274885;28;20289;-79
2023/12/30 03:27:10;;;;;;;2.63;2.57;;;7.20;77.60;;;;;;6302891;28;20232;-78
2023/12/30 03:30:13;;;;;;;2.60;2.60;;;7.20;77.70;;;;;;6297543;28;20317;-80
2023/12/30 03:33:16;;;;;;;2.80;2.70;;;7.20;77.50;;;;;;6293329;28;20236;-79
2023/12/30 03:36:20;;;;;;;3.03;2.90;;;7.20;77.30;;;;;;6302830;28;20325;-80
2023/12/30 03:39:25;;;;;;;3.00;2.80;;;7.20;77.20;;;;;;6301434;28;20856;-81
2023/12/30 03:42:28;;;;;;;2.60;2.50;;;7.20;77.40;;;;;;6293254;28;20233;-79
2023/12/30 03:45:31;;;;;;;3.10;3.00;;;7.20;77.10;;;;;;6302281;28;20245;-80
2023/12/30 03:48:34;;;;;;;2.70;2.70;;;7.20;77.00;;;;;;6299517;28;20268;-80
2023/12/30 03:51:37;;;;;;;3.03;2.93;;;7.10;77.20;;;;;;6303003;28;20389;-78
2023/12/30 03:54:42;;;;;;;2.73;2.73;;;7.00;77.30;;;;;;6289935;28;20240;-80
2023/12/30 03:57:45;;;;;;;3.00;2.80;;;7.00;77.30;;;;;;6285633;28;20233;-80
2023/12/30 04:00:48;;;;;;;2.60;2.60;;;7.00;77.40;;;;;;6303410;28;20301;-80
2023/12/30 04:03:52;;;;;;;3.17;3.07;;;7.10;77.20;;;;;;6294927;28;20264;-79
2023/12/30 04:06:55;;;;;;;2.80;2.80;;;7.00;77.20;;;;;;6297299;28;20236;-80
2023/12/30 04:09:59;;;;;;;2.77;2.67;;;7.00;77.40;;;;;;6302167;28;20228;-78
2023/12/30 04:13:03;;;;;;;3.23;3.13;;;7.00;77.30;;;;;;6297626;28;20792;-78
2023/12/30 04:16:08;;;;;;;2.90;2.80;;;7.00;77.40;;;;;;6297694;28;20233;-78
2023/12/30 04:19:11;;;;;;;2.87;2.60;;;6.90;77.30;;;;;;6297417;28;20317;-80
2023/12/30 04:22:14;;;;;;;2.53;2.43;;;6.90;77.10;;;;;;6299506;28;20259;-79
2023/12/30 04:25:19;;;;;;;2.93;2.83;;;6.90;76.90;;;;;;6288498;28;20298;-79
2023/12/30 04:28:22;;;;;;;2.73;2.63;;;6.90;76.60;;;;;;6300427;28;20746;-80
2023/12/30 04:31:25;;;;;;;2.83;2.70;;;6.90;76.60;;;;;;6303307;28;22333;-80
2023/12/30 04:34:28;;;;;;;2.87;2.87;;;6.90;76.20;;;;;;6294899;28;20240;-81
2023/12/30 04:37:31;;;;;;;2.73;2.73;;;6.80;75.80;;;;;;6304199;28;20336;-79
2023/12/30 04:40:36;;;;;;;2.50;2.40;;;6.90;75.20;;;;;;6303911;28;20233;-80
2023/12/30 04:43:42;;;;;;;2.70;2.60;;;6.90;74.70;;;;;;6303887;28;20233;-78
2023/12/30 04:46:45;;;;;;;2.67;2.57;;;6.80;74.60;;;;;;6295033;28;20434;-79
2023/12/30 04:49:49;;;;;;;2.40;2.40;;;6.80;74.20;;;;;;6296990;28;20233;-79
2023/12/30 04:52:52;;;;;;;2.50;2.40;;;6.70;74.10;;;;;;6301476;28;20317;-81
2023/12/30 04:55:56;;;;;;;2.80;2.70;;;6.70;73.90;;;;;;6311628;28;20248;-79
2023/12/30 04:59:00;;;;;;;2.80;2.60;;;6.70;73.60;;;;;;6304699;28;20694;-79
2023/12/30 05:02:03;;;;;;;2.60;2.60;;;6.60;73.50;;;;;;6305988;28;20229;-80
2023/12/30 05:05:07;;;;;;;2.50;2.50;;;6.60;73.60;;;;;;6307727;28;20228;-80
2023/12/30 05:08:10;;;;;;;2.93;2.80;;;6.50;73.70;;;;;;6302209;28;20264;-80
2023/12/30 05:11:15;;;;;;;2.70;2.70;;;6.60;73.40;;;;;;6307828;28;20582;-79
2023/12/30 05:14:19;;;;;;;2.60;2.50;;;6.60;73.50;;;;;;6302638;28;20237;-80
2023/12/30 05:17:23;;;;;;;2.50;2.50;;;6.50;73.60;;;;;;6304040;28;20240;-80
2023/12/30 05:20:26;;;;;;;2.87;2.70;;;6.50;73.60;;;;;;6296902;28;20650;-80
2023/12/30 05:23:29;;;;;;;2.90;2.80;;;6.50;73.60;;;;;;6284651;28;20247;-78
2023/12/30 05:26:34;;;;;;;2.90;2.80;;;6.50;73.80;;;;;;6305559;28;20519;-78
2023/12/30 05:29:37;;;;;;;2.40;2.40;;;6.60;73.60;;;;;;6304040;28;20739;-79
2023/12/30 05:32:40;;;;;;;2.57;2.47;;;6.50;73.60;;;;;;6293740;28;20285;-79
2023/12/30 05:35:43;;;;;;;3.17;2.87;;;6.50;73.60;;;;;;6299116;28;20953;-80
2023/12/30 05:38:49;;;;;;;3.07;2.97;;;6.50;73.60;;;;;;6297731;28;20229;-83
2023/12/30 05:41:53;;;;;;;2.40;2.40;;;6.50;73.50;;;;;;6304359;28;20232;-78
2023/12/30 05:44:56;;;;;;;2.70;2.70;;;6.50;73.00;;;;;;6302285;28;20759;-79
2023/12/30 05:48:02;;;;;;;2.70;2.63;;;6.60;72.80;;;;;;6300065;28;20838;-81
2023/12/30 05:51:05;;;;;;;3.07;3.00;;;6.50;72.90;;;;;;6310917;28;20697;-80
2023/12/30 05:54:10;;;;;;;3.03;2.83;;;6.50;73.00;;;;;;6297863;28;20328;-79
2023/12/30 05:57:15;;;;;;;2.60;2.60;;;6.50;72.90;;;;;;6309140;28;20225;-79
2023/12/30 06:00:19;;;;;;;2.80;2.70;;;6.50;72.90;;;;;;6306369;28;20236;-80
2023/12/30 06:03:22;;;;;;;3.03;2.93;;;6.50;72.90;;;;;;6298102;28;20348;-80
2023/12/30 06:06:26;;;;;;;2.50;2.40;;;6.40;72.90;;;;;;6306707;28;20310;-79
2023/12/30 06:09:32;;;;;;;2.90;2.80;;;6.50;72.70;;;;;;6301733;28;20244;-79
2023/12/30 06:12:37;;;;;;;5.40;2.70;;;6.40;72.80;;;;;;6311555;28;20275;-79
2023/12/30 06:15:40;;;;;;;3.20;3.10;;;6.30;73.00;;;;;;6305249;28;20330;-80
2023/12/30 06:18:43;;;;;;;2.63;2.63;;;6.30;72.80;;;;;;6300213;28;20241;-80
2023/12/30 06:21:47;;;;;;;2.63;2.60;;;6.30;72.60;;;;;;6311417;28;20240;-79
2023/12/30 06:24:50;;;;;;;2.83;2.83;;;6.20;72.80;;;;;;6299277;28;20391;-81
2023/12/30 06:27:54;;;;;;;3.30;3.20;;;6.10;72.90;;;;;;6297716;28;20232;-80
2023/12/30 06:30:57;;;;;;;2.90;2.80;;;6.20;72.80;;;;;;6306287;28;20245;-80
2023/12/30 06:34:01;;;;;;;2.93;2.93;;;6.10;73.00;;;;;;6305344;28;20240;-80
2023/12/30 06:37:04;;;;;;;2.87;2.80;;;6.00;73.00;;;;;;6301617;28;20277;-76
2023/12/30 06:40:09;;;;;;;2.90;2.80;;;6.00;73.20;;;;;;6302366;28;20275;-76
2023/12/30 06:43:14;;;;;;;3.20;2.90;;;5.90;73.20;;;;;;6294959;28;20240;-76
2023/12/30 06:46:19;;;;;;;6.73;2.90;;;5.90;73.50;;;;;;6301371;28;20222;-76
2023/12/30 06:49:23;;;;;;;2.70;2.70;;;5.80;73.60;;;;;;6304910;28;20229;-77
2023/12/30 06:52:26;;;;;;;2.80;2.80;;;5.80;73.60;;;;;;6298187;28;20229;-74
2023/12/30 06:55:29;;;;;;;3.10;2.90;;;5.80;73.30;;;;;;6306383;28;20244;-75
2023/12/30 06:58:45;;;;;;;3.33;2.73;;;5.80;73.00;;;;;;6309767;28;20877;-77
2023/12/30 07:01:50;;;;;;;3.07;2.87;;;5.80;72.90;;;;;;6302056;28;20293;-76
2023/12/30 07:04:53;;;;;;;3.77;3.40;;;5.80;73.00;;;;;;6308543;28;20366;-76
2023/12/30 07:07:56;;;;;;;3.83;2.73;;;5.80;73.00;;;;;;6310567;28;20240;-76
2023/12/30 07:10:59;;;;;;;3.23;3.00;;;5.70;73.00;;;;;;6306865;28;20232;-77
2023/12/30 07:14:04;;;;;;;3.37;3.07;;;5.80;72.80;;;;;;6308426;28;20245;-77
2023/12/30 07:17:07;;;;;;;3.10;2.87;;;5.70;72.80;;;;;;6306067;28;20232;-76
2023/12/30 07:20:12;;;;;;;3.07;2.97;;;5.70;73.00;;;;;;6310834;28;20290;-77
2023/12/30 07:23:15;;;;;;;3.30;3.20;;;5.70;72.90;;;;;;6303064;28;20268;-76
2023/12/30 07:26:18;;;;;;;8.17;4.60;;;5.70;73.10;;;;;;6297564;28;20232;-77
2023/12/30 07:29:23;;;;;;;5.27;4.77;;;5.70;73.10;;;;;;6303750;28;20258;-75
2023/12/30 07:32:26;;;;;;;5.80;4.00;;;5.70;73.00;;;;;;6302285;28;20241;-75
2023/12/30 07:35:29;;;;;;;5.67;5.10;;;5.70;72.90;;;;;;6301275;28;20244;-77
2023/12/30 07:38:32;;;;;;;5.87;3.10;;;5.70;73.20;;;;;;6302014;28;20846;-76
2023/12/30 07:41:37;;;;;;;3.33;3.13;;;5.70;72.90;;;;;;6302617;28;20611;-76
2023/12/30 07:44:41;;;;;;;3.13;2.97;;;5.70;73.00;;;;;;6289509;28;20236;-77
2023/12/30 07:47:44;;;;;;;4.40;3.13;;;5.70;72.90;;;;;;6303943;28;20270;-76
2023/12/30 07:50:48;;;;;;;4.23;3.30;;;5.80;72.80;;;;;;6306131;28;20745;-76
2023/12/30 07:53:51;;;;;;;4.17;3.57;;;5.80;72.90;;;;;;6296853;28;20731;-77
2023/12/30 07:56:54;;;;;;;4.10;3.87;;;5.70;73.10;;;;;;6301767;28;20641;-75
2023/12/30 08:00:01;;;;;;;4.53;4.13;;;5.70;73.40;;;;;;6302087;28;20243;-76
2023/12/30 08:03:04;;;;;;;3.70;3.40;;;5.70;73.50;;;;;;6303884;28;20229;-74
2023/12/30 08:06:08;;;;;;;4.00;3.67;;;5.70;73.60;;;;;;6293459;28;20370;-77
2023/12/30 08:09:12;;;;;;;3.73;3.40;;;5.70;73.60;;;;;;6297263;28;20244;-75
2023/12/30 08:12:15;;;;;;;4.53;3.60;;;5.70;73.50;;;;;;6306672;28;20708;-75
2023/12/30 08:15:20;;;;;;;4.23;3.93;;;5.70;73.60;;;;;;6305646;28;20744;-77
2023/12/30 08:18:23;;;;;;;3.20;3.00;;;5.70;73.40;;;;;;6301781;28;20252;-76
2023/12/30 08:21:27;;;;;;;3.97;3.63;;;5.80;73.40;;;;;;6306719;28;20323;-77
2023/12/30 08:24:30;;;;;;;5.13;3.87;;;5.70;73.50;;;;;;6300735;28;20370;-76
2023/12/30 08:27:33;;;;;;;3.30;3.10;;;5.80;73.50;;;;;;6307690;28;20229;-76
2023/12/30 08:30:38;;;;;;;3.40;3.17;;;5.80;73.40;;;;;;6286430;28;20320;-76
2023/12/30 08:33:41;;;;;;;3.63;3.43;;;5.70;73.50;;;;;;6299385;28;20290;-76
2023/12/30 08:36:44;;;;;;;3.53;3.30;;;5.80;73.30;;;;;;6308622;28;20259;-75
2023/12/30 08:39:48;;;;;;;4.80;3.63;;;5.70;73.30;;;;;;6307290;28;20599;-75
2023/12/30 08:42:51;;;;;;;3.47;3.20;;;5.70;73.30;;;;;;6306619;28;20233;-74
2023/12/30 08:45:56;;;;;;;4.23;3.83;;;5.70;73.50;;;;;;6306929;28;20241;-77
2023/12/30 08:48:59;;;;;;;4.00;3.43;;;5.80;73.30;;;;;;6301497;28;20236;-76
2023/12/30 08:52:03;;;;;;;4.63;3.27;;;5.70;73.40;;;;;;6313647;28;20236;-76
2023/12/30 08:55:11;;;;;;;3.47;3.27;;;5.70;73.30;;;;;;6291601;28;20240;-76
2023/12/30 08:58:15;;;;;;;3.40;3.30;;;5.80;73.00;;;;;;6299962;28;20229;-76
2023/12/30 09:01:20;;;;;;;3.20;3.00;;;5.90;72.90;;;;;;6303175;28;20383;-77
2023/12/30 09:04:24;;;;;;;4.00;3.70;;;5.80;72.80;;;;;;6309128;28;20244;-75
2023/12/30 09:07:29;;;;;;;4.40;3.60;;;5.90;72.50;;;;;;6310157;28;20240;-75
2023/12/30 09:10:32;;;;;;;3.70;3.40;;;5.90;72.50;;;;;;6308706;28;20237;-76
2023/12/30 09:13:35;;;;;;;4.17;3.30;;;5.90;72.60;;;;;;6310863;28;20611;-76
2023/12/30 09:16:40;;;;;;;4.37;3.60;;;5.90;72.40;;;;;;6309238;28;20668;-79
2023/12/30 09:19:43;;;;;;;3.77;3.43;;;6.00;72.10;;;;;;6301844;28;20236;-78
2023/12/30 09:22:47;;;;;;;3.07;2.90;;;6.10;71.80;;;;;;6305694;28;20732;-76
2023/12/30 09:25:50;;;;;;;3.97;3.67;;;6.20;71.50;;;;;;6315627;28;20264;-77
2023/12/30 09:28:53;;;;;;;7.87;3.70;;;6.20;71.10;;;;;;6304981;28;20322;-76
2023/12/30 09:31:58;;;;;;;8.23;3.63;;;6.20;71.10;;;;;;6310300;28;20331;-76
2023/12/30 09:35:02;;;;;;;10.63;3.63;;;6.20;71.30;;;;;;6306140;28;20229;-75
2023/12/30 09:38:05;;;;;;;3.93;3.63;;;6.20;71.40;;;;;;6307487;28;20634;-75
2023/12/30 09:41:09;;;;;;;3.60;3.30;;;6.20;71.10;;;;;;6311392;28;20242;-75
2023/12/30 09:44:13;;;;;;;3.77;3.43;;;6.30;70.90;;;;;;6298312;28;20236;-76
2023/12/30 09:47:18;;;;;;;3.77;3.47;;;6.30;70.80;;;;;;6306916;28;20308;-76
2023/12/30 09:50:21;;;;;;;5.80;3.77;;;6.40;70.50;;;;;;6299324;28;20248;-76
2023/12/30 09:53:25;;;;;;;4.07;3.80;;;6.30;70.20;;;;;;6307627;28;20244;-76
2023/12/30 09:56:30;;;;;;;5.40;3.80;;;6.30;70.70;;;;;;6298592;28;20231;-77
2023/12/30 09:59:35;;;;;;;4.67;4.27;;;6.40;70.50;;;;;;6306396;28;20330;-76
2023/12/30 10:02:40;;;;;;;5.50;4.00;;;6.40;70.60;;;;;;6301659;28;20267;-75
2023/12/30 10:05:43;;;;;;;6.90;4.20;;;6.30;70.60;;;;;;6307425;28;20775;-75
2023/12/30 10:08:48;;;;;;;4.10;3.73;;;6.40;70.70;;;;;;6306729;28;20233;-74
2023/12/30 10:11:51;;;;;;;4.20;3.63;;;6.50;70.40;;;;;;6303810;28;20279;-75
2023/12/30 10:14:54;;;;;;;6.07;4.30;;;6.50;70.30;;;;;;6302322;28;20244;-76
2023/12/30 10:17:58;;;;;;;3.53;3.33;;;6.50;70.10;;;;;;6304734;28;20308;-74
2023/12/30 10:21:03;;;;;;;7.60;4.30;;;6.50;70.20;;;;;;6309325;28;20258;-75
2023/12/30 10:24:07;;;;;;;4.40;3.90;;;6.60;70.40;;;;;;6300828;28;20762;-77
2023/12/30 10:27:10;;;;;;;5.77;3.50;;;6.60;70.20;;;;;;6300942;28;20268;-77
2023/12/30 10:30:17;;;;;;;6.60;3.63;;;6.70;69.90;;;;;;6305403;28;20653;-78
2023/12/30 10:33:22;;;;;;;8.13;3.87;;;6.80;70.00;;;;;;6299678;28;20248;-75
2023/12/30 10:36:28;;;;;;;4.17;3.83;;;6.80;70.00;;;;;;6302760;28;20240;-76
2023/12/30 10:39:34;;;;;;;5.73;3.80;;;6.90;69.60;;;;;;6306021;28;20656;-76
2023/12/30 10:42:37;;;;;;;8.40;3.80;;;6.90;69.30;;;;;;6299897;28;21377;-75
2023/12/30 10:45:41;;;;;;;8.93;4.20;;;6.90;69.30;;;;;;6309725;28;20252;-76
2023/12/30 10:48:53;;;;;;;10.03;4.50;;;6.90;69.50;;;;;;6291974;28;20482;-77
2023/12/30 10:51:59;;;;;;;5.53;4.20;;;6.90;69.50;;;;;;6279992;28;20294;-76
2023/12/30 10:55:10;;;;;;;4.80;4.23;;;7.00;69.40;;;;;;6300844;28;20234;-75
2023/12/30 10:58:18;;;;;;;4.33;3.80;;;7.00;69.20;;;;;;6305266;28;20245;-76
2023/12/30 11:01:22;;;;;;;5.30;4.10;;;7.10;68.70;;;;;;6304885;28;20968;-75
2023/12/30 11:04:27;;;;;;;4.23;3.83;;;7.00;69.00;;;;;;6306188;28;20378;-76
2023/12/30 11:07:31;;;;;;;4.13;3.60;;;7.10;69.10;;;;;;6297827;28;20261;-76
2023/12/30 11:10:34;;;;;;;4.83;3.70;;;7.10;69.10;;;;;;6308629;28;20247;-76
2023/12/30 11:13:41;;;;;;;5.73;3.57;;;7.20;68.70;;;;;;6310230;28;20278;-77
2023/12/30 11:16:44;;;;;;;5.67;3.80;;;7.10;68.80;;;;;;6306022;28;20253;-75
2023/12/30 11:19:48;;;;;;;5.40;4.00;;;7.20;68.40;;;;;;6300633;28;20271;-76
2023/12/30 11:22:53;;;;;;;4.03;3.70;;;7.30;68.20;;;;;;6301090;28;20614;-76
2023/12/30 11:25:59;;;;;;;8.87;4.10;;;7.30;68.20;;;;;;6304540;28;20334;-76
2023/12/30 11:29:04;;;;;;;6.00;3.70;;;7.40;68.20;;;;;;6298481;28;20232;-76
2023/12/30 11:32:07;;;;;;;4.80;4.43;;;7.40;68.20;;;;;;6304595;28;20228;-77
2023/12/30 11:35:13;;;;;;;5.23;3.83;;;7.30;68.00;;;;;;6299189;28;20337;-76
2023/12/30 11:38:18;;;;;;;4.20;3.40;;;7.30;68.20;;;;;;6307640;28;20720;-76
2023/12/30 11:41:22;;;;;;;6.20;3.83;;;7.40;68.10;;;;;;6304793;28;21166;-77
2023/12/30 11:44:25;;;;;;;5.77;3.90;;;7.40;67.70;;;;;;6291948;28;20244;-75
2023/12/30 11:47:30;;;;;;;4.90;4.00;;;7.30;67.90;;;;;;6297636;28;20297;-75
2023/12/30 11:50:34;;;;;;;7.90;3.83;;;7.30;68.00;;;;;;6307929;28;20290;-77
2023/12/30 11:53:37;;;;;;;4.67;4.20;;;7.20;68.00;;;;;;6294769;28;20330;-76
2023/12/30 11:56:41;;;;;;;4.80;4.13;;;7.20;68.60;;;;;;6301480;28;20648;-76
2023/12/30 11:59:45;;;;;;;7.20;4.10;;;7.20;68.20;;;;;;6301590;28;20320;-75
2023/12/30 12:02:49;;;;;;;5.43;3.70;;;7.20;68.00;;;;;;6299246;28;20785;-76
2023/12/30 12:05:53;;;;;;;5.53;3.90;;;7.20;67.90;;;;;;6295959;28;20302;-76
2023/12/30 12:08:56;;;;;;;6.50;4.07;;;7.20;68.10;;;;;;6304386;28;20232;-75
2023/12/30 12:12:01;;;;;;;4.80;3.90;;;7.20;68.00;;;;;;6305319;28;20236;-76
2023/12/30 12:15:07;;;;;;;3.87;3.60;;;7.20;68.10;;;;;;6295780;28;20252;-75
2023/12/30 12:18:11;;;;;;;5.17;3.77;;;7.20;68.30;;;;;;6305660;28;20354;-74
2023/12/30 12:21:15;;;;;;;5.90;3.70;;;7.20;68.00;;;;;;6297131;28;20237;-76
2023/12/30 12:24:19;;;;;;;6.90;4.27;;;7.40;68.00;;;;;;6299748;28;20637;-76
2023/12/30 12:27:23;;;;;;;9.60;4.30;;;7.40;67.90;;;;;;6301482;28;20322;-75
2023/12/30 12:30:26;;;;;;;5.47;4.03;;;7.40;67.80;;;;;;6306394;28;20321;-76
2023/12/30 12:33:30;;;;;;;4.37;3.90;;;7.50;67.50;;;;;;6298769;28;20229;-77
2023/12/30 12:36:34;;;;;;;4.57;4.00;;;7.40;67.70;;;;;;6293954;28;20237;-77
2023/12/30 12:39:37;;;;;;;4.13;3.80;;;7.50;67.50;;;;;;6298682;28;20320;-77
2023/12/30 12:42:40;;;;;;;6.57;3.87;;;7.50;67.80;;;;;;6295380;28;20741;-76
2023/12/30 12:45:44;;;;;;;4.37;4.07;;;7.50;67.40;;;;;;6295119;28;20371;-78
2023/12/30 12:48:47;;;;;;;6.87;4.23;;;7.50;67.60;;;;;;6292012;28;20905;-78
2023/12/30 12:51:52;;;;;;;6.53;4.40;;;7.40;67.40;;;;;;6297108;28;20232;-75
2023/12/30 12:54:55;;;;;;;5.33;4.03;;;7.40;67.30;;;;;;6308206;28;20247;-76
2023/12/30 12:57:59;;;;;;;6.23;4.10;;;7.50;66.90;;;;;;6301770;28;20318;-76
2023/12/30 13:01:03;;;;;;;6.23;4.43;;;7.50;66.90;;;;;;6296067;28;20230;-77
2023/12/30 13:04:06;;;;;;;4.90;4.50;;;7.60;66.80;;;;;;6296008;28;20233;-76
2023/12/30 13:07:12;;;;;;;6.80;4.10;;;7.60;67.20;;;;;;6297536;28;20236;-76
2023/12/30 13:10:36;;;;;;;4.83;4.30;;;7.50;67.40;;;;;;6301079;28;20236;-77
2023/12/30 13:13:39;;;;;;;11.10;4.90;;;7.60;67.00;;;;;;6302995;28;20244;-76
2023/12/30 13:16:42;;;;;;;4.93;3.93;;;7.60;67.10;;;;;;6305018;28;20229;-76
2023/12/30 13:19:46;;;;;;;6.33;4.17;;;7.70;66.80;;;;;;6303605;28;20233;-79
2023/12/30 13:22:56;;;;;;;6.87;4.40;;;7.70;66.60;;;;;;6310808;28;20232;-78
2023/12/30 13:25:59;;;;;;;6.30;4.47;;;7.70;66.50;;;;;;6314682;28;20245;-75
2023/12/30 13:29:07;;;;;;;4.50;4.00;;;7.60;66.60;;;;;;6298450;28;20301;-76
2023/12/30 13:32:11;;;;;;;7.47;4.60;;;7.70;66.60;;;;;;6305561;28;20239;-75
2023/12/30 13:35:15;;;;;;;8.27;4.10;;;7.70;66.60;;;;;;6311685;28;20258;-76
2023/12/30 13:38:23;;;;;;;4.70;4.10;;;7.70;66.20;;;;;;6304397;28;20312;-77
2023/12/30 13:41:26;;;;;;;5.10;4.40;;;7.70;66.20;;;;;;6311294;28;20252;-78
2023/12/30 13:44:35;;;;;;;7.60;4.37;;;7.60;66.60;;;;;;6299501;28;20372;-76
2023/12/30 13:48:07;;;;;;;5.60;4.40;;;7.50;66.50;;;;;;6306676;28;20268;-77
2023/12/30 13:51:03;;;;;;;5.37;4.10;;;7.40;66.90;;;;;;6298214;28;20619;-76
2023/12/30 13:54:08;;;;;;;6.20;4.33;;;7.30;67.00;;;;;;6300791;28;20253;-77
2023/12/30 13:57:13;;;;;;;5.20;4.27;;;7.30;67.10;;;;;;6304159;28;20272;-76
2023/12/30 14:00:18;;;;;;;4.57;4.17;;;7.30;67.10;;;;;;6309570;28;20264;-76
2023/12/30 14:03:22;;;;;;;9.20;4.07;;;7.30;67.10;;;;;;6311250;28;20252;-78
2023/12/30 14:06:32;;;;;;;5.43;3.90;;;7.20;67.10;;;;;;6301837;28;20255;-77
2023/12/30 14:09:44;;;;;;;5.67;4.17;;;7.20;66.90;;;;;;6311762;28;20267;-76
2023/12/30 14:12:52;;;;;;;5.07;4.57;;;7.20;66.80;;;;;;6301673;28;20261;-77
2023/12/30 14:15:55;;;;;;;8.53;4.43;;;7.20;66.80;;;;;;6306507;28;20271;-76
2023/12/30 14:18:58;;;;;;;6.37;4.27;;;7.20;66.80;;;;;;6294536;28;20232;-75
2023/12/30 14:22:04;;;;;;;5.17;4.40;;;7.20;67.00;;;;;;6307676;28;20229;-77
2023/12/30 14:25:11;;;;;;;5.07;4.60;;;7.20;66.80;;;;;;6300861;28;20229;-78
2023/12/30 14:28:14;;;;;;;5.20;4.40;;;7.10;66.80;;;;;;6304255;28;20245;-76
2023/12/30 14:31:18;;;;;;;5.50;4.17;;;7.00;66.90;;;;;;6304403;28;20248;-77
2023/12/30 14:34:21;;;;;;;6.27;4.17;;;7.00;67.10;;;;;;6299995;28;20243;-74
2023/12/30 14:37:25;;;;;;;4.80;4.33;;;7.00;67.20;;;;;;6303497;28;20252;-75
2023/12/30 14:40:29;;;;;;;4.97;4.57;;;6.90;67.60;;;;;;6297426;28;20233;-75
2023/12/30 14:43:33;;;;;;;7.33;4.57;;;6.80;67.70;;;;;;6309642;28;20305;-76
2023/12/30 14:46:36;;;;;;;8.23;4.83;;;6.80;67.70;;;;;;6302203;28;20233;-77
2023/12/30 14:49:39;;;;;;;6.33;4.80;;;6.70;67.80;;;;;;6297179;28;20885;-76
2023/12/30 14:52:43;;;;;;;5.50;4.70;;;6.70;68.00;;;;;;6302447;28;20232;-76
2023/12/30 14:55:48;;;;;;;4.90;4.50;;;6.80;68.00;;;;;;6291117;28;20229;-76
2023/12/30 14:58:51;;;;;;;4.80;4.40;;;6.70;67.90;;;;;;6303723;28;20316;-76
2023/12/30 15:01:56;;;;;;;8.97;5.27;;;6.60;68.10;;;;;;6300951;28;20673;-75
2023/12/30 15:04:59;;;;;;;5.97;5.20;;;6.60;68.20;;;;;;6297102;28;20374;-74
2023/12/30 15:08:03;;;;;;;5.33;4.90;;;6.50;68.60;;;;;;6298070;28;20248;-74
2023/12/30 15:11:08;;;;;;;5.80;5.30;;;6.40;68.70;;;;;;6292856;28;20709;-76
2023/12/30 15:14:12;;;;;;;4.70;4.40;;;6.40;68.80;;;;;;6307296;28;20637;-75
2023/12/30 15:17:15;;;;;;;6.57;5.67;;;6.40;69.10;;;;;;6304492;28;20303;-76
2023/12/30 15:20:20;;;;;;;5.57;5.10;;;6.40;68.90;;;;;;6313535;28;20260;-77
2023/12/30 15:23:24;;;;;;;7.47;5.17;;;6.30;69.10;;;;;;6296067;28;20264;-76
2023/12/30 15:26:29;;;;;;;6.90;5.80;;;6.30;69.00;;;;;;6298890;28;20236;-76
2023/12/30 15:29:32;;;;;;;6.73;5.23;;;6.40;69.00;;;;;;6293769;28;20329;-77
2023/12/30 15:32:35;;;;;;;10.37;5.73;;;6.30;69.10;;;;;;6299349;28;20279;-75
2023/12/30 15:35:39;;;;;;;5.90;5.40;;;6.30;69.10;;;;;;6296864;28;20278;-77
2023/12/30 15:38:42;;;;;;;5.60;5.20;;;6.20;69.40;;;;;;6303040;28;20228;-75
2023/12/30 15:41:47;;;;;;;5.27;4.87;;;6.30;69.30;;;;;;6301973;28;20233;-77
2023/12/30 15:44:50;;;;;;;5.40;5.07;;;6.30;69.20;;;;;;6302107;28;20331;-76
2023/12/30 15:47:53;;;;;;;9.53;5.47;;;6.20;69.20;;;;;;6307049;28;20722;-77
2023/12/30 15:50:56;;;;;;;5.60;5.20;;;6.20;69.30;;;;;;6301815;28;20635;-76
2023/12/30 15:54:00;;;;;;;5.80;5.40;;;6.20;69.50;;;;;;6310920;28;20236;-76
2023/12/30 15:57:05;;;;;;;10.07;5.37;;;6.20;69.40;;;;;;6300944;28;20236;-77
2023/12/30 16:00:10;;;;;;;5.97;5.43;;;6.10;69.70;;;;;;6304913;28;20903;-76
2023/12/30 16:03:13;;;;;;;9.30;5.70;;;6.10;69.80;;;;;;6310845;28;20365;-76
2023/12/30 16:06:18;;;;;;;7.30;5.53;;;6.10;69.60;;;;;;6299140;28;20232;-76
2023/12/30 16:09:21;;;;;;;5.30;4.80;;;6.20;69.50;;;;;;6289459;28;20240;-76
2023/12/30 16:12:26;;;;;;;9.20;5.60;;;6.20;69.60;;;;;;6306130;28;20241;-76